sensor_id;sensor_type;location;lat;lon;timestamp;P1;durP1;ratioP1;P2;durP2;ratioP2
9667;SDS011;4872;48.316;10.650;2022-11-13T04:52:23;11.63;;;9.90;;
9667;SDS011;4872;48.316;10.650;2022-11-13T04:54:50;18.13;;;10.00;;
9667;SDS011;4872;48.316;10.650;2022-11-13T04:57:17;11.33;;;10.13;;
9667;SDS011;4872;48.316;10.650;2022-11-13T04:59:44;14.07;;;10.67;;
9667;SDS011;4872;48.316;10.650;2022-11-13T05:02:10;11.37;;;10.20;;
9667;SDS011;4872;48.316;10.650;2022-11-13T05:04:37;13.87;;;10.37;;
9667;SDS011;4872;48.316;10.650;2022-11-13T05:07:04;12.37;;;10.17;;
9667;SDS011;4872;48.316;10.650;2022-11-13T05:09:32;11.03;;;9.43;;
9667;SDS011;4872;48.316;10.650;2022-11-13T05:11:59;11.40;;;10.20;;
9667;SDS011;4872;48.316;10.650;2022-11-13T05:14:26;13.43;;;10.47;;
9667;SDS011;4872;48.316;10.650;2022-11-13T05:16:53;12.60;;;10.17;;
9667;SDS011;4872;48.316;10.650;2022-11-13T05:19:20;11.00;;;9.67;;
9667;SDS011;4872;48.316;10.650;2022-11-13T05:21:46;11.50;;;9.90;;
9667;SDS011;4872;48.316;10.650;2022-11-13T05:24:13;12.03;;;10.27;;
9667;SDS011;4872;48.316;10.650;2022-11-13T05:26:41;10.70;;;9.13;;
9667;SDS011;4872;48.316;10.650;2022-11-13T05:29:08;14.43;;;11.33;;
9667;SDS011;4872;48.316;10.650;2022-11-13T05:31:35;13.97;;;10.73;;
9667;SDS011;4872;48.316;10.650;2022-11-13T05:34:02;15.60;;;10.80;;
9667;SDS011;4872;48.316;10.650;2022-11-13T05:36:31;17.53;;;12.33;;
9667;SDS011;4872;48.316;10.650;2022-11-13T05:38:58;12.77;;;10.23;;
9667;SDS011;4872;48.316;10.650;2022-11-13T05:41:24;14.37;;;11.00;;
9667;SDS011;4872;48.316;10.650;2022-11-13T05:43:53;12.67;;;11.27;;
9667;SDS011;4872;48.316;10.650;2022-11-13T05:46:20;14.03;;;11.53;;
9667;SDS011;4872;48.316;10.650;2022-11-13T05:48:50;17.10;;;12.33;;
9667;SDS011;4872;48.316;10.650;2022-11-13T05:51:21;13.43;;;11.00;;
9667;SDS011;4872;48.316;10.650;2022-11-13T05:53:49;13.67;;;11.17;;
9667;SDS011;4872;48.316;10.650;2022-11-13T05:56:18;12.47;;;10.73;;
9667;SDS011;4872;48.316;10.650;2022-11-13T05:58:47;13.07;;;10.50;;
9667;SDS011;4872;48.316;10.650;2022-11-13T06:01:17;11.60;;;10.40;;
9667;SDS011;4872;48.316;10.650;2022-11-13T06:03:45;12.83;;;10.90;;
9667;SDS011;4872;48.316;10.650;2022-11-13T06:06:13;11.73;;;10.10;;
9667;SDS011;4872;48.316;10.650;2022-11-13T06:08:41;13.00;;;10.10;;
9667;SDS011;4872;48.316;10.650;2022-11-13T06:11:09;12.27;;;9.73;;
9667;SDS011;4872;48.316;10.650;2022-11-13T06:13:37;12.17;;;10.37;;
9667;SDS011;4872;48.316;10.650;2022-11-13T06:16:06;10.97;;;9.80;;
9667;SDS011;4872;48.316;10.650;2022-11-13T06:18:35;11.80;;;10.00;;
9667;SDS011;4872;48.316;10.650;2022-11-13T06:21:03;11.27;;;10.07;;
9667;SDS011;4872;48.316;10.650;2022-11-13T06:23:32;10.83;;;9.47;;
9667;SDS011;4872;48.316;10.650;2022-11-13T06:26:00;12.10;;;10.27;;
9667;SDS011;4872;48.316;10.650;2022-11-13T06:28:27;12.43;;;10.13;;
9667;SDS011;4872;48.316;10.650;2022-11-13T06:30:54;11.60;;;10.13;;
9667;SDS011;4872;48.316;10.650;2022-11-13T06:33:21;13.30;;;10.30;;
9667;SDS011;4872;48.316;10.650;2022-11-13T06:35:49;10.23;;;9.10;;
9667;SDS011;4872;48.316;10.650;2022-11-13T06:38:15;12.83;;;9.90;;
9667;SDS011;4872;48.316;10.650;2022-11-13T06:40:42;10.57;;;9.43;;
9667;SDS011;4872;48.316;10.650;2022-11-13T06:43:09;11.63;;;10.43;;
9667;SDS011;4872;48.316;10.650;2022-11-13T06:45:36;11.77;;;9.60;;
9667;SDS011;4872;48.316;10.650;2022-11-13T06:48:03;10.60;;;9.20;;
9667;SDS011;4872;48.316;10.650;2022-11-13T06:50:30;11.23;;;9.43;;
9667;SDS011;4872;48.316;10.650;2022-11-13T06:52:58;13.27;;;10.03;;
9667;SDS011;4872;48.316;10.650;2022-11-13T06:55:25;10.70;;;9.60;;
9667;SDS011;4872;48.316;10.650;2022-11-13T06:57:52;11.07;;;8.73;;
9667;SDS011;4872;48.316;10.650;2022-11-13T07:00:19;10.07;;;9.07;;
9667;SDS011;4872;48.316;10.650;2022-11-13T07:02:47;10.47;;;8.97;;
9667;SDS011;4872;48.316;10.650;2022-11-13T07:05:14;10.07;;;8.57;;
9667;SDS011;4872;48.316;10.650;2022-11-13T07:07:41;11.07;;;9.13;;
9667;SDS011;4872;48.316;10.650;2022-11-13T07:10:09;11.27;;;10.00;;
9667;SDS011;4872;48.316;10.650;2022-11-13T07:12:36;11.67;;;9.80;;
9667;SDS011;4872;48.316;10.650;2022-11-13T07:15:03;11.17;;;9.27;;
9667;SDS011;4872;48.316;10.650;2022-11-13T07:17:30;12.57;;;10.53;;
9667;SDS011;4872;48.316;10.650;2022-11-13T07:19:57;15.13;;;11.27;;
9667;SDS011;4872;48.316;10.650;2022-11-13T07:22:24;14.40;;;10.90;;
9667;SDS011;4872;48.316;10.650;2022-11-13T07:24:50;13.77;;;12.23;;
9667;SDS011;4872;48.316;10.650;2022-11-13T07:27:18;13.40;;;11.60;;
9667;SDS011;4872;48.316;10.650;2022-11-13T07:29:45;14.27;;;11.80;;
9667;SDS011;4872;48.316;10.650;2022-11-13T07:32:12;15.60;;;12.43;;
9667;SDS011;4872;48.316;10.650;2022-11-13T07:34:39;15.67;;;12.40;;
9667;SDS011;4872;48.316;10.650;2022-11-13T07:37:05;17.17;;;13.13;;
9667;SDS011;4872;48.316;10.650;2022-11-13T07:39:32;19.90;;;14.57;;
9667;SDS011;4872;48.316;10.650;2022-11-13T07:41:59;22.23;;;16.30;;
9667;SDS011;4872;48.316;10.650;2022-11-13T07:44:27;21.93;;;15.47;;
9667;SDS011;4872;48.316;10.650;2022-11-13T07:46:54;23.13;;;16.43;;
9667;SDS011;4872;48.316;10.650;2022-11-13T07:49:21;23.93;;;16.87;;
9667;SDS011;4872;48.316;10.650;2022-11-13T07:51:48;22.90;;;16.40;;
9667;SDS011;4872;48.316;10.650;2022-11-13T07:54:14;26.20;;;17.47;;
9667;SDS011;4872;48.316;10.650;2022-11-13T07:56:42;21.03;;;16.03;;
9667;SDS011;4872;48.316;10.650;2022-11-13T07:59:11;23.30;;;16.57;;
9667;SDS011;4872;48.316;10.650;2022-11-13T08:01:39;19.57;;;15.83;;
9667;SDS011;4872;48.316;10.650;2022-11-13T08:04:06;22.20;;;16.20;;
9667;SDS011;4872;48.316;10.650;2022-11-13T08:06:35;24.33;;;17.67;;
9667;SDS011;4872;48.316;10.650;2022-11-13T08:09:02;23.73;;;16.60;;
9667;SDS011;4872;48.316;10.650;2022-11-13T08:11:29;23.93;;;17.77;;
9667;SDS011;4872;48.316;10.650;2022-11-13T08:13:55;27.73;;;18.23;;
9667;SDS011;4872;48.316;10.650;2022-11-13T08:16:22;26.00;;;18.93;;
9667;SDS011;4872;48.316;10.650;2022-11-13T08:18:50;24.73;;;18.30;;
9667;SDS011;4872;48.316;10.650;2022-11-13T08:21:17;21.90;;;17.20;;
9667;SDS011;4872;48.316;10.650;2022-11-13T08:23:45;24.50;;;18.70;;
9667;SDS011;4872;48.316;10.650;2022-11-13T08:26:14;23.00;;;17.17;;
9667;SDS011;4872;48.316;10.650;2022-11-13T08:28:41;20.40;;;16.53;;
9667;SDS011;4872;48.316;10.650;2022-11-13T08:31:09;21.90;;;17.77;;
9667;SDS011;4872;48.316;10.650;2022-11-13T08:33:37;22.43;;;18.33;;
9667;SDS011;4872;48.316;10.650;2022-11-13T08:36:05;23.87;;;17.73;;
9667;SDS011;4872;48.316;10.650;2022-11-13T08:38:33;21.80;;;17.00;;
9667;SDS011;4872;48.316;10.650;2022-11-13T08:41:00;23.07;;;18.63;;
9667;SDS011;4872;48.316;10.650;2022-11-13T08:43:28;24.33;;;18.30;;
9667;SDS011;4872;48.316;10.650;2022-11-13T08:45:55;23.10;;;18.43;;
9667;SDS011;4872;48.316;10.650;2022-11-13T08:48:23;26.37;;;19.03;;
9667;SDS011;4872;48.316;10.650;2022-11-13T08:50:50;25.97;;;19.27;;
9667;SDS011;4872;48.316;10.650;2022-11-13T08:53:19;24.73;;;19.43;;
9667;SDS011;4872;48.316;10.650;2022-11-13T08:55:46;26.00;;;19.50;;
9667;SDS011;4872;48.316;10.650;2022-11-13T08:58:13;25.70;;;18.87;;
9667;SDS011;4872;48.316;10.650;2022-11-13T09:00:40;29.00;;;19.63;;
9667;SDS011;4872;48.316;10.650;2022-11-13T09:03:07;24.63;;;18.57;;
9667;SDS011;4872;48.316;10.650;2022-11-13T09:05:36;24.13;;;18.27;;
9667;SDS011;4872;48.316;10.650;2022-11-13T09:08:03;23.33;;;17.23;;
9667;SDS011;4872;48.316;10.650;2022-11-13T09:10:32;19.47;;;15.40;;
9667;SDS011;4872;48.316;10.650;2022-11-13T09:12:59;19.40;;;15.73;;
9667;SDS011;4872;48.316;10.650;2022-11-13T09:15:28;20.23;;;16.17;;
9667;SDS011;4872;48.316;10.650;2022-11-13T09:17:56;19.23;;;15.40;;
9667;SDS011;4872;48.316;10.650;2022-11-13T09:20:23;21.70;;;17.33;;
9667;SDS011;4872;48.316;10.650;2022-11-13T09:22:55;20.77;;;16.93;;
9667;SDS011;4872;48.316;10.650;2022-11-13T09:25:23;20.83;;;15.93;;
9667;SDS011;4872;48.316;10.650;2022-11-13T09:27:54;19.33;;;14.87;;
9667;SDS011;4872;48.316;10.650;2022-11-13T09:30:23;17.83;;;15.77;;
9667;SDS011;4872;48.316;10.650;2022-11-13T09:32:51;16.80;;;14.20;;
9667;SDS011;4872;48.316;10.650;2022-11-13T09:35:19;16.23;;;14.57;;
9667;SDS011;4872;48.316;10.650;2022-11-13T09:37:58;15.53;;;13.20;;
9667;SDS011;4872;48.316;10.650;2022-11-13T09:40:27;16.97;;;13.33;;
9667;SDS011;4872;48.316;10.650;2022-11-13T09:42:58;15.77;;;13.23;;
9667;SDS011;4872;48.316;10.650;2022-11-13T09:45:27;15.73;;;13.10;;
9667;SDS011;4872;48.316;10.650;2022-11-13T09:47:56;15.60;;;13.90;;
9667;SDS011;4872;48.316;10.650;2022-11-13T09:50:32;18.17;;;16.13;;
9667;SDS011;4872;48.316;10.650;2022-11-13T09:52:59;17.87;;;14.90;;
9667;SDS011;4872;48.316;10.650;2022-11-13T09:55:27;17.83;;;14.33;;
9667;SDS011;4872;48.316;10.650;2022-11-13T09:58:01;17.80;;;14.13;;
9667;SDS011;4872;48.316;10.650;2022-11-13T10:00:33;16.03;;;14.13;;
9667;SDS011;4872;48.316;10.650;2022-11-13T10:03:06;16.10;;;13.57;;
9667;SDS011;4872;48.316;10.650;2022-11-13T10:05:56;17.27;;;15.00;;
9667;SDS011;4872;48.316;10.650;2022-11-13T10:08:30;16.33;;;14.23;;
9667;SDS011;4872;48.316;10.650;2022-11-13T10:11:05;19.13;;;15.87;;
9667;SDS011;4872;48.316;10.650;2022-11-13T10:13:42;22.00;;;18.13;;
9667;SDS011;4872;48.316;10.650;2022-11-13T10:16:14;23.30;;;17.53;;
9667;SDS011;4872;48.316;10.650;2022-11-13T10:18:46;19.53;;;15.73;;
9667;SDS011;4872;48.316;10.650;2022-11-13T10:21:16;16.53;;;14.07;;
9667;SDS011;4872;48.316;10.650;2022-11-13T10:23:53;17.37;;;14.63;;
9667;SDS011;4872;48.316;10.650;2022-11-13T10:26:22;19.50;;;15.50;;
9667;SDS011;4872;48.316;10.650;2022-11-13T10:28:54;16.47;;;14.10;;
9667;SDS011;4872;48.316;10.650;2022-11-13T10:31:25;19.73;;;14.63;;
9667;SDS011;4872;48.316;10.650;2022-11-13T10:33:53;17.63;;;14.57;;
9667;SDS011;4872;48.316;10.650;2022-11-13T10:36:23;18.27;;;15.03;;
9667;SDS011;4872;48.316;10.650;2022-11-13T10:38:57;15.73;;;13.40;;
9667;SDS011;4872;48.316;10.650;2022-11-13T10:41:28;16.53;;;13.40;;
9667;SDS011;4872;48.316;10.650;2022-11-13T10:44:04;15.23;;;12.37;;
9667;SDS011;4872;48.316;10.650;2022-11-13T10:46:33;16.17;;;13.23;;
9667;SDS011;4872;48.316;10.650;2022-11-13T10:49:09;16.97;;;14.50;;
9667;SDS011;4872;48.316;10.650;2022-11-13T10:51:38;17.23;;;14.07;;
9667;SDS011;4872;48.316;10.650;2022-11-13T10:54:15;16.50;;;14.37;;
9667;SDS011;4872;48.316;10.650;2022-11-13T10:56:55;15.17;;;13.40;;
9667;SDS011;4872;48.316;10.650;2022-11-13T10:59:24;15.43;;;13.57;;
9667;SDS011;4872;48.316;10.650;2022-11-13T11:01:51;15.83;;;12.90;;
9667;SDS011;4872;48.316;10.650;2022-11-13T11:04:19;19.20;;;13.40;;
9667;SDS011;4872;48.316;10.650;2022-11-13T11:06:51;15.10;;;13.50;;
9667;SDS011;4872;48.316;10.650;2022-11-13T11:09:20;17.27;;;13.27;;
9667;SDS011;4872;48.316;10.650;2022-11-13T11:12:00;15.80;;;12.47;;
9667;SDS011;4872;48.316;10.650;2022-11-13T11:14:58;14.10;;;12.60;;
9667;SDS011;4872;48.316;10.650;2022-11-13T11:17:36;14.77;;;12.57;;
9667;SDS011;4872;48.316;10.650;2022-11-13T11:20:12;13.97;;;12.47;;
9667;SDS011;4872;48.316;10.650;2022-11-13T11:22:46;13.93;;;12.43;;
9667;SDS011;4872;48.316;10.650;2022-11-13T11:25:19;13.47;;;12.07;;
9667;SDS011;4872;48.316;10.650;2022-11-13T11:27:53;14.43;;;11.83;;
9667;SDS011;4872;48.316;10.650;2022-11-13T11:30:28;15.87;;;12.97;;
9667;SDS011;4872;48.316;10.650;2022-11-13T11:32:59;12.30;;;10.63;;
9667;SDS011;4872;48.316;10.650;2022-11-13T11:35:36;14.23;;;11.97;;
9667;SDS011;4872;48.316;10.650;2022-11-13T11:38:08;17.27;;;13.23;;
9667;SDS011;4872;48.316;10.650;2022-11-13T11:40:40;18.67;;;14.27;;
9667;SDS011;4872;48.316;10.650;2022-11-13T11:43:11;13.97;;;11.67;;
9667;SDS011;4872;48.316;10.650;2022-11-13T11:45:46;12.67;;;11.37;;
9667;SDS011;4872;48.316;10.650;2022-11-13T11:48:14;12.30;;;11.00;;
9667;SDS011;4872;48.316;10.650;2022-11-13T11:50:44;12.43;;;10.87;;
9667;SDS011;4872;48.316;10.650;2022-11-13T11:53:15;11.93;;;10.17;;
9667;SDS011;4872;48.316;10.650;2022-11-13T11:58:42;11.83;;;10.37;;
9667;SDS011;4872;48.316;10.650;2022-11-13T12:01:41;12.70;;;10.17;;
9667;SDS011;4872;48.316;10.650;2022-11-13T12:04:23;12.10;;;10.63;;
9667;SDS011;4872;48.316;10.650;2022-11-13T12:07:04;10.60;;;9.63;;
9667;SDS011;4872;48.316;10.650;2022-11-13T12:09:39;9.90;;;8.93;;
9667;SDS011;4872;48.316;10.650;2022-11-13T12:12:14;11.10;;;9.70;;
9667;SDS011;4872;48.316;10.650;2022-11-13T12:14:48;12.10;;;10.20;;
9667;SDS011;4872;48.316;10.650;2022-11-13T12:17:31;10.73;;;9.63;;
9667;SDS011;4872;48.316;10.650;2022-11-13T12:20:17;9.80;;;8.73;;
9667;SDS011;4872;48.316;10.650;2022-11-13T12:22:52;9.73;;;8.70;;
9667;SDS011;4872;48.316;10.650;2022-11-13T12:25:26;9.17;;;8.20;;
9667;SDS011;4872;48.316;10.650;2022-11-13T12:28:02;9.70;;;8.80;;
9667;SDS011;4872;48.316;10.650;2022-11-13T12:30:39;10.53;;;9.53;;
9667;SDS011;4872;48.316;10.650;2022-11-13T12:33:16;9.33;;;8.33;;
9667;SDS011;4872;48.316;10.650;2022-11-13T12:35:51;9.83;;;8.93;;
9667;SDS011;4872;48.316;10.650;2022-11-13T12:38:22;9.57;;;8.40;;
9667;SDS011;4872;48.316;10.650;2022-11-13T12:41:07;8.70;;;7.90;;
9667;SDS011;4872;48.316;10.650;2022-11-13T12:43:46;9.03;;;8.13;;
9667;SDS011;4872;48.316;10.650;2022-11-13T12:46:32;10.03;;;8.57;;
9667;SDS011;4872;48.316;10.650;2022-11-13T12:49:15;9.67;;;8.37;;
9667;SDS011;4872;48.316;10.650;2022-11-13T12:51:54;8.17;;;7.43;;
9667;SDS011;4872;48.316;10.650;2022-11-13T12:54:26;8.23;;;7.13;;
9667;SDS011;4872;48.316;10.650;2022-11-13T12:57:03;8.53;;;7.73;;
9667;SDS011;4872;48.316;10.650;2022-11-13T12:59:33;8.30;;;7.50;;
9667;SDS011;4872;48.316;10.650;2022-11-13T13:02:08;8.30;;;7.60;;
9667;SDS011;4872;48.316;10.650;2022-11-13T13:05:00;8.87;;;7.83;;
9667;SDS011;4872;48.316;10.650;2022-11-13T13:10:40;8.90;;;7.80;;
9667;SDS011;4872;48.316;10.650;2022-11-13T13:13:19;8.40;;;7.63;;
9667;SDS011;4872;48.316;10.650;2022-11-13T13:15:54;7.73;;;6.97;;
9667;SDS011;4872;48.316;10.650;2022-11-13T13:18:24;8.33;;;7.20;;
9667;SDS011;4872;48.316;10.650;2022-11-13T13:21:05;8.23;;;7.43;;
9667;SDS011;4872;48.316;10.650;2022-11-13T13:23:34;9.13;;;8.23;;
9667;SDS011;4872;48.316;10.650;2022-11-13T13:26:11;8.93;;;7.60;;
9667;SDS011;4872;48.316;10.650;2022-11-13T13:28:42;9.10;;;7.80;;
9667;SDS011;4872;48.316;10.650;2022-11-13T13:31:17;9.07;;;7.87;;
9667;SDS011;4872;48.316;10.650;2022-11-13T13:33:52;8.43;;;7.33;;
9667;SDS011;4872;48.316;10.650;2022-11-13T13:36:44;10.20;;;8.87;;
9667;SDS011;4872;48.316;10.650;2022-11-13T13:39:26;8.43;;;7.63;;
9667;SDS011;4872;48.316;10.650;2022-11-13T13:42:05;8.30;;;7.60;;
9667;SDS011;4872;48.316;10.650;2022-11-13T13:44:48;9.73;;;8.73;;
9667;SDS011;4872;48.316;10.650;2022-11-13T13:47:26;11.27;;;10.13;;
9667;SDS011;4872;48.316;10.650;2022-11-13T13:49:56;9.53;;;8.73;;
9667;SDS011;4872;48.316;10.650;2022-11-13T13:52:27;9.77;;;8.87;;
9667;SDS011;4872;48.316;10.650;2022-11-13T13:54:55;9.80;;;8.80;;
9667;SDS011;4872;48.316;10.650;2022-11-13T13:57:24;10.33;;;9.17;;
9667;SDS011;4872;48.316;10.650;2022-11-13T13:59:52;10.40;;;9.37;;
9667;SDS011;4872;48.316;10.650;2022-11-13T14:02:20;10.57;;;9.47;;
9667;SDS011;4872;48.316;10.650;2022-11-13T14:04:49;10.80;;;9.13;;
9667;SDS011;4872;48.316;10.650;2022-11-13T14:07:18;10.87;;;9.73;;
9667;SDS011;4872;48.316;10.650;2022-11-13T14:09:49;12.00;;;10.60;;
9667;SDS011;4872;48.316;10.650;2022-11-13T14:12:28;11.90;;;10.70;;
9667;SDS011;4872;48.316;10.650;2022-11-13T14:14:55;10.37;;;9.40;;
9667;SDS011;4872;48.316;10.650;2022-11-13T14:17:22;10.90;;;9.77;;
9667;SDS011;4872;48.316;10.650;2022-11-13T14:19:50;11.67;;;10.40;;
9667;SDS011;4872;48.316;10.650;2022-11-13T14:22:18;12.07;;;10.77;;
9667;SDS011;4872;48.316;10.650;2022-11-13T14:24:46;13.87;;;10.10;;
9667;SDS011;4872;48.316;10.650;2022-11-13T14:27:18;10.93;;;9.83;;
9667;SDS011;4872;48.316;10.650;2022-11-13T14:29:48;11.07;;;10.00;;
9667;SDS011;4872;48.316;10.650;2022-11-13T14:32:17;11.90;;;10.70;;
9667;SDS011;4872;48.316;10.650;2022-11-13T14:34:47;12.00;;;10.30;;
9667;SDS011;4872;48.316;10.650;2022-11-13T14:37:19;11.97;;;10.30;;
9667;SDS011;4872;48.316;10.650;2022-11-13T14:39:50;20.03;;;17.03;;
9667;SDS011;4872;48.316;10.650;2022-11-13T14:42:18;17.10;;;15.17;;
9667;SDS011;4872;48.316;10.650;2022-11-13T14:44:49;14.90;;;13.33;;
9667;SDS011;4872;48.316;10.650;2022-11-13T14:47:19;14.40;;;12.43;;
9667;SDS011;4872;48.316;10.650;2022-11-13T14:49:48;13.47;;;11.63;;
9667;SDS011;4872;48.316;10.650;2022-11-13T14:52:21;11.80;;;10.60;;
9667;SDS011;4872;48.316;10.650;2022-11-13T14:55:00;12.33;;;11.03;;
9667;SDS011;4872;48.316;10.650;2022-11-13T14:57:28;10.80;;;9.77;;
9667;SDS011;4872;48.316;10.650;2022-11-13T14:59:55;12.23;;;10.90;;
9667;SDS011;4872;48.316;10.650;2022-11-13T15:02:23;12.87;;;11.03;;
9667;SDS011;4872;48.316;10.650;2022-11-13T15:04:49;11.83;;;10.63;;
9667;SDS011;4872;48.316;10.650;2022-11-13T15:07:27;12.17;;;10.67;;
9667;SDS011;4872;48.316;10.650;2022-11-13T15:09:55;13.13;;;11.83;;
9667;SDS011;4872;48.316;10.650;2022-11-13T15:12:24;12.23;;;11.03;;
9667;SDS011;4872;48.316;10.650;2022-11-13T15:14:51;14.67;;;12.20;;
9667;SDS011;4872;48.316;10.650;2022-11-13T15:17:18;14.27;;;12.60;;
9667;SDS011;4872;48.316;10.650;2022-11-13T15:19:47;14.13;;;12.63;;
9667;SDS011;4872;48.316;10.650;2022-11-13T15:22:17;14.77;;;13.17;;
9667;SDS011;4872;48.316;10.650;2022-11-13T15:24:44;13.80;;;12.30;;
9667;SDS011;4872;48.316;10.650;2022-11-13T15:27:12;15.37;;;13.77;;
9667;SDS011;4872;48.316;10.650;2022-11-13T15:29:41;15.20;;;13.57;;
9667;SDS011;4872;48.316;10.650;2022-11-13T15:32:09;15.70;;;13.43;;
9667;SDS011;4872;48.316;10.650;2022-11-13T15:34:36;13.77;;;12.37;;
9667;SDS011;4872;48.316;10.650;2022-11-13T15:37:08;16.53;;;14.63;;
9667;SDS011;4872;48.316;10.650;2022-11-13T15:39:39;18.00;;;14.23;;
9667;SDS011;4872;48.316;10.650;2022-11-13T15:42:09;16.93;;;15.13;;
9667;SDS011;4872;48.316;10.650;2022-11-13T15:44:38;18.03;;;14.97;;
9667;SDS011;4872;48.316;10.650;2022-11-13T15:47:11;17.93;;;15.67;;
9667;SDS011;4872;48.316;10.650;2022-11-13T15:49:45;102.53;;;57.00;;
9667;SDS011;4872;48.316;10.650;2022-11-13T15:52:12;61.60;;;36.97;;
9667;SDS011;4872;48.316;10.650;2022-11-13T15:54:39;19.83;;;16.47;;
9667;SDS011;4872;48.316;10.650;2022-11-13T15:57:07;17.23;;;14.70;;
9667;SDS011;4872;48.316;10.650;2022-11-13T15:59:41;20.33;;;16.50;;
9667;SDS011;4872;48.316;10.650;2022-11-13T16:02:08;27.47;;;20.50;;
9667;SDS011;4872;48.316;10.650;2022-11-13T16:04:36;19.33;;;15.87;;
9667;SDS011;4872;48.316;10.650;2022-11-13T16:07:03;24.23;;;20.33;;
9667;SDS011;4872;48.316;10.650;2022-11-13T16:09:31;23.80;;;20.70;;
9667;SDS011;4872;48.316;10.650;2022-11-13T16:11:57;22.17;;;17.97;;
9667;SDS011;4872;48.316;10.650;2022-11-13T16:14:25;19.37;;;16.50;;
9667;SDS011;4872;48.316;10.650;2022-11-13T16:16:52;21.57;;;17.27;;
9667;SDS011;4872;48.316;10.650;2022-11-13T16:19:20;39.40;;;31.27;;
9667;SDS011;4872;48.316;10.650;2022-11-13T16:21:50;35.03;;;28.57;;
9667;SDS011;4872;48.316;10.650;2022-11-13T16:24:18;20.23;;;17.27;;
9667;SDS011;4872;48.316;10.650;2022-11-13T16:26:46;21.40;;;18.63;;
9667;SDS011;4872;48.316;10.650;2022-11-13T16:29:16;22.33;;;18.40;;
9667;SDS011;4872;48.316;10.650;2022-11-13T16:31:44;31.67;;;25.57;;
9667;SDS011;4872;48.316;10.650;2022-11-13T16:34:11;20.53;;;17.87;;
9667;SDS011;4872;48.316;10.650;2022-11-13T16:36:37;18.53;;;15.53;;
9667;SDS011;4872;48.316;10.650;2022-11-13T16:39:07;18.27;;;16.17;;
9667;SDS011;4872;48.316;10.650;2022-11-13T16:41:38;21.67;;;17.97;;
9667;SDS011;4872;48.316;10.650;2022-11-13T16:44:05;16.77;;;14.87;;
9667;SDS011;4872;48.316;10.650;2022-11-13T16:46:32;17.80;;;14.97;;
9667;SDS011;4872;48.316;10.650;2022-11-13T16:49:00;19.00;;;15.47;;
9667;SDS011;4872;48.316;10.650;2022-11-13T16:51:27;26.87;;;20.77;;
9667;SDS011;4872;48.316;10.650;2022-11-13T16:53:53;52.20;;;37.87;;
9667;SDS011;4872;48.316;10.650;2022-11-13T16:56:23;156.00;;;95.57;;
9667;SDS011;4872;48.316;10.650;2022-11-13T16:58:53;97.97;;;55.40;;
9667;SDS011;4872;48.316;10.650;2022-11-13T17:01:20;36.07;;;27.50;;
9667;SDS011;4872;48.316;10.650;2022-11-13T17:03:47;26.77;;;21.90;;
9667;SDS011;4872;48.316;10.650;2022-11-13T17:06:18;26.70;;;20.90;;
9667;SDS011;4872;48.316;10.650;2022-11-13T17:08:50;18.13;;;15.83;;
9667;SDS011;4872;48.316;10.650;2022-11-13T17:11:17;25.03;;;21.83;;
9667;SDS011;4872;48.316;10.650;2022-11-13T17:13:48;24.83;;;22.20;;
9667;SDS011;4872;48.316;10.650;2022-11-13T17:16:16;16.30;;;14.03;;
9667;SDS011;4872;48.316;10.650;2022-11-13T17:18:43;15.93;;;13.73;;
9667;SDS011;4872;48.316;10.650;2022-11-13T17:21:10;68.20;;;54.17;;
9667;SDS011;4872;48.316;10.650;2022-11-13T17:23:37;23.43;;;20.93;;
9667;SDS011;4872;48.316;10.650;2022-11-13T17:26:03;19.80;;;17.50;;
9667;SDS011;4872;48.316;10.650;2022-11-13T17:28:30;23.37;;;20.03;;
9667;SDS011;4872;48.316;10.650;2022-11-13T17:31:00;24.20;;;20.93;;
9667;SDS011;4872;48.316;10.650;2022-11-13T17:33:28;25.23;;;20.87;;
9667;SDS011;4872;48.316;10.650;2022-11-13T17:35:56;22.93;;;19.43;;
9667;SDS011;4872;48.316;10.650;2022-11-13T17:38:23;23.40;;;20.90;;
9667;SDS011;4872;48.316;10.650;2022-11-13T17:40:51;25.27;;;20.10;;
9667;SDS011;4872;48.316;10.650;2022-11-13T17:43:18;21.67;;;17.40;;
9667;SDS011;4872;48.316;10.650;2022-11-13T17:45:47;46.30;;;32.93;;
9667;SDS011;4872;48.316;10.650;2022-11-13T17:48:15;24.03;;;19.20;;
9667;SDS011;4872;48.316;10.650;2022-11-13T17:50:42;18.67;;;16.67;;
9667;SDS011;4872;48.316;10.650;2022-11-13T17:53:09;19.83;;;16.30;;
9667;SDS011;4872;48.316;10.650;2022-11-13T17:55:36;19.70;;;15.93;;
9667;SDS011;4872;48.316;10.650;2022-11-13T17:58:02;21.17;;;17.17;;
9667;SDS011;4872;48.316;10.650;2022-11-13T18:00:29;24.67;;;18.77;;
9667;SDS011;4872;48.316;10.650;2022-11-13T18:02:56;23.60;;;19.67;;
9667;SDS011;4872;48.316;10.650;2022-11-13T18:05:24;25.33;;;19.93;;
9667;SDS011;4872;48.316;10.650;2022-11-13T18:07:51;44.77;;;25.73;;
9667;SDS011;4872;48.316;10.650;2022-11-13T18:10:18;33.33;;;24.83;;
9667;SDS011;4872;48.316;10.650;2022-11-13T18:12:44;31.70;;;23.00;;
9667;SDS011;4872;48.316;10.650;2022-11-13T18:15:12;27.63;;;21.77;;
9667;SDS011;4872;48.316;10.650;2022-11-13T18:17:39;28.07;;;21.63;;
9667;SDS011;4872;48.316;10.650;2022-11-13T18:20:06;27.63;;;20.40;;
9667;SDS011;4872;48.316;10.650;2022-11-13T18:22:35;30.43;;;20.10;;
9667;SDS011;4872;48.316;10.650;2022-11-13T18:25:02;29.53;;;21.23;;
9667;SDS011;4872;48.316;10.650;2022-11-13T18:27:29;48.60;;;24.47;;
9667;SDS011;4872;48.316;10.650;2022-11-13T18:29:56;38.97;;;25.50;;
9667;SDS011;4872;48.316;10.650;2022-11-13T18:32:23;34.60;;;24.50;;
9667;SDS011;4872;48.316;10.650;2022-11-13T18:34:50;30.90;;;22.60;;
9667;SDS011;4872;48.316;10.650;2022-11-13T18:37:16;29.43;;;22.53;;
9667;SDS011;4872;48.316;10.650;2022-11-13T18:39:45;30.13;;;21.73;;
9667;SDS011;4872;48.316;10.650;2022-11-13T18:42:11;22.17;;;19.40;;
9667;SDS011;4872;48.316;10.650;2022-11-13T18:44:38;19.00;;;16.87;;
9667;SDS011;4872;48.316;10.650;2022-11-13T18:47:05;18.80;;;16.73;;
9667;SDS011;4872;48.316;10.650;2022-11-13T18:49:31;17.77;;;15.33;;
9667;SDS011;4872;48.316;10.650;2022-11-13T18:51:59;17.77;;;15.90;;
9667;SDS011;4872;48.316;10.650;2022-11-13T18:54:25;17.57;;;15.63;;
9667;SDS011;4872;48.316;10.650;2022-11-13T18:56:54;16.90;;;13.53;;
9667;SDS011;4872;48.316;10.650;2022-11-13T18:59:20;21.20;;;16.73;;
9667;SDS011;4872;48.316;10.650;2022-11-13T19:01:47;15.67;;;14.00;;
9667;SDS011;4872;48.316;10.650;2022-11-13T19:04:14;16.50;;;14.67;;
9667;SDS011;4872;48.316;10.650;2022-11-13T19:06:41;17.27;;;15.50;;
9667;SDS011;4872;48.316;10.650;2022-11-13T19:09:09;40.37;;;24.07;;
9667;SDS011;4872;48.316;10.650;2022-11-13T19:11:37;19.43;;;15.77;;
9667;SDS011;4872;48.316;10.650;2022-11-13T19:14:06;15.63;;;14.13;;
9667;SDS011;4872;48.316;10.650;2022-11-13T19:16:34;15.17;;;12.80;;
9667;SDS011;4872;48.316;10.650;2022-11-13T19:19:03;13.47;;;12.07;;
9667;SDS011;4872;48.316;10.650;2022-11-13T19:21:32;45.63;;;32.70;;
9667;SDS011;4872;48.316;10.650;2022-11-13T19:24:01;19.00;;;16.37;;
9667;SDS011;4872;48.316;10.650;2022-11-13T19:26:28;18.87;;;15.77;;
9667;SDS011;4872;48.316;10.650;2022-11-13T19:28:55;17.80;;;15.90;;
9667;SDS011;4872;48.316;10.650;2022-11-13T19:31:24;18.70;;;16.67;;
9667;SDS011;4872;48.316;10.650;2022-11-13T19:33:52;19.80;;;17.60;;
9667;SDS011;4872;48.316;10.650;2022-11-13T19:36:20;25.03;;;20.90;;
9667;SDS011;4872;48.316;10.650;2022-11-13T19:38:50;26.50;;;21.40;;
9667;SDS011;4872;48.316;10.650;2022-11-13T19:41:17;32.07;;;23.23;;
9667;SDS011;4872;48.316;10.650;2022-11-13T19:43:44;28.77;;;21.90;;
9667;SDS011;4872;48.316;10.650;2022-11-13T19:46:12;25.80;;;20.50;;
9667;SDS011;4872;48.316;10.650;2022-11-13T19:48:42;30.03;;;21.50;;
9667;SDS011;4872;48.316;10.650;2022-11-13T19:51:10;29.33;;;21.73;;